sensor_id;sensor_type;location;lat;lon;timestamp;P1;durP1;ratioP1;P2;durP2;ratioP2
36211;SDS011;22247;48.586;13.492;2022-07-29T00:00:35;2.80;;;1.77;;
36211;SDS011;22247;48.586;13.492;2022-07-29T00:03:02;1.80;;;1.45;;
36211;SDS011;22247;48.586;13.492;2022-07-29T00:05:28;3.40;;;2.15;;
36211;SDS011;22247;48.586;13.492;2022-07-29T00:07:54;2.97;;;2.30;;
36211;SDS011;22247;48.586;13.492;2022-07-29T00:10:20;5.28;;;1.95;;
36211;SDS011;22247;48.586;13.492;2022-07-29T00:12:46;2.40;;;2.05;;
36211;SDS011;22247;48.586;13.492;2022-07-29T00:15:12;3.53;;;2.00;;
36211;SDS011;22247;48.586;13.492;2022-07-29T00:17:39;4.40;;;2.60;;
36211;SDS011;22247;48.586;13.492;2022-07-29T00:20:05;5.47;;;1.83;;
36211;SDS011;22247;48.586;13.492;2022-07-29T00:22:31;4.28;;;1.83;;
36211;SDS011;22247;48.586;13.492;2022-07-29T00:24:57;3.17;;;2.13;;
36211;SDS011;22247;48.586;13.492;2022-07-29T00:27:23;5.15;;;1.63;;
36211;SDS011;22247;48.586;13.492;2022-07-29T00:29:50;2.03;;;1.80;;
36211;SDS011;22247;48.586;13.492;2022-07-29T00:32:16;1.90;;;1.65;;
36211;SDS011;22247;48.586;13.492;2022-07-29T00:34:42;4.10;;;1.60;;
36211;SDS011;22247;48.586;13.492;2022-07-29T00:37:26;6.10;;;1.50;;
36211;SDS011;22247;48.586;13.492;2022-07-29T00:39:52;4.70;;;1.90;;
36211;SDS011;22247;48.586;13.492;2022-07-29T00:42:18;2.50;;;1.63;;
36211;SDS011;22247;48.586;13.492;2022-07-29T00:44:47;2.78;;;2.03;;
36211;SDS011;22247;48.586;13.492;2022-07-29T00:47:15;2.42;;;1.88;;
36211;SDS011;22247;48.586;13.492;2022-07-29T00:49:41;3.35;;;3.03;;
36211;SDS011;22247;48.586;13.492;2022-07-29T00:52:08;2.67;;;1.80;;
36211;SDS011;22247;48.586;13.492;2022-07-29T00:54:35;5.05;;;2.58;;
36211;SDS011;22247;48.586;13.492;2022-07-29T00:57:04;4.45;;;2.03;;
36211;SDS011;22247;48.586;13.492;2022-07-29T00:59:32;3.40;;;2.17;;
36211;SDS011;22247;48.586;13.492;2022-07-29T01:01:58;5.20;;;2.45;;
36211;SDS011;22247;48.586;13.492;2022-07-29T01:04:24;1.83;;;1.73;;
36211;SDS011;22247;48.586;13.492;2022-07-29T01:06:50;2.65;;;2.45;;
36211;SDS011;22247;48.586;13.492;2022-07-29T01:09:16;4.28;;;2.40;;
36211;SDS011;22247;48.586;13.492;2022-07-29T01:11:43;6.85;;;2.97;;
36211;SDS011;22247;48.586;13.492;2022-07-29T01:14:13;3.47;;;2.45;;
36211;SDS011;22247;48.586;13.492;2022-07-29T01:16:42;2.58;;;2.38;;
36211;SDS011;22247;48.586;13.492;2022-07-29T01:19:44;2.28;;;2.08;;
36211;SDS011;22247;48.586;13.492;2022-07-29T01:31:19;7.00;;;2.60;;
36211;SDS011;22247;48.586;13.492;2022-07-29T01:33:50;4.75;;;3.50;;
36211;SDS011;22247;48.586;13.492;2022-07-29T01:36:23;3.33;;;2.78;;
36211;SDS011;22247;48.586;13.492;2022-07-29T01:39:07;3.67;;;2.83;;
36211;SDS011;22247;48.586;13.492;2022-07-29T01:41:43;4.03;;;2.90;;
36211;SDS011;22247;48.586;13.492;2022-07-29T01:44:37;4.25;;;2.58;;
36211;SDS011;22247;48.586;13.492;2022-07-29T01:53:06;7.32;;;5.28;;
36211;SDS011;22247;48.586;13.492;2022-07-29T01:55:42;6.63;;;4.22;;
36211;SDS011;22247;48.586;13.492;2022-07-29T01:58:13;12.57;;;6.70;;
36211;SDS011;22247;48.586;13.492;2022-07-29T02:00:58;8.20;;;5.28;;
36211;SDS011;22247;48.586;13.492;2022-07-29T02:03:24;11.73;;;4.95;;
36211;SDS011;22247;48.586;13.492;2022-07-29T02:05:52;8.77;;;6.68;;
36211;SDS011;22247;48.586;13.492;2022-07-29T02:08:19;6.05;;;5.47;;
36211;SDS011;22247;48.586;13.492;2022-07-29T02:10:47;7.35;;;6.15;;
36211;SDS011;22247;48.586;13.492;2022-07-29T02:13:15;9.65;;;5.53;;
36211;SDS011;22247;48.586;13.492;2022-07-29T02:15:43;11.10;;;7.03;;
36211;SDS011;22247;48.586;13.492;2022-07-29T02:18:13;8.20;;;5.43;;
36211;SDS011;22247;48.586;13.492;2022-07-29T02:20:46;6.90;;;6.15;;
36211;SDS011;22247;48.586;13.492;2022-07-29T02:23:14;11.93;;;6.95;;
36211;SDS011;22247;48.586;13.492;2022-07-29T02:25:46;8.52;;;6.10;;
36211;SDS011;22247;48.586;13.492;2022-07-29T02:28:15;9.15;;;5.93;;
36211;SDS011;22247;48.586;13.492;2022-07-29T02:30:42;12.60;;;6.53;;
36211;SDS011;22247;48.586;13.492;2022-07-29T02:33:09;8.18;;;6.25;;
36211;SDS011;22247;48.586;13.492;2022-07-29T02:35:38;13.30;;;7.43;;
36211;SDS011;22247;48.586;13.492;2022-07-29T02:38:06;10.05;;;7.35;;
36211;SDS011;22247;48.586;13.492;2022-07-29T02:40:55;9.90;;;7.32;;
36211;SDS011;22247;48.586;13.492;2022-07-29T02:43:22;8.20;;;7.40;;
36211;SDS011;22247;48.586;13.492;2022-07-29T02:45:53;10.75;;;6.40;;
36211;SDS011;22247;48.586;13.492;2022-07-29T02:48:22;7.47;;;5.47;;
36211;SDS011;22247;48.586;13.492;2022-07-29T02:51:01;7.43;;;5.18;;
36211;SDS011;22247;48.586;13.492;2022-07-29T02:53:38;8.75;;;7.65;;
36211;SDS011;22247;48.586;13.492;2022-07-29T02:56:10;7.75;;;6.57;;
36211;SDS011;22247;48.586;13.492;2022-07-29T02:58:42;9.18;;;7.28;;
36211;SDS011;22247;48.586;13.492;2022-07-29T03:01:20;13.45;;;7.85;;
36211;SDS011;22247;48.586;13.492;2022-07-29T03:03:48;10.02;;;7.00;;
36211;SDS011;22247;48.586;13.492;2022-07-29T03:06:18;10.35;;;7.97;;
36211;SDS011;22247;48.586;13.492;2022-07-29T03:08:46;6.72;;;6.07;;
36211;SDS011;22247;48.586;13.492;2022-07-29T03:11:13;7.38;;;5.75;;
36211;SDS011;22247;48.586;13.492;2022-07-29T03:13:39;8.02;;;5.22;;
36211;SDS011;22247;48.586;13.492;2022-07-29T03:16:05;7.05;;;6.35;;
36211;SDS011;22247;48.586;13.492;2022-07-29T03:18:35;6.35;;;5.80;;
36211;SDS011;22247;48.586;13.492;2022-07-29T03:21:02;7.75;;;6.45;;
36211;SDS011;22247;48.586;13.492;2022-07-29T03:23:31;7.20;;;6.50;;
36211;SDS011;22247;48.586;13.492;2022-07-29T03:25:57;7.97;;;6.93;;
36211;SDS011;22247;48.586;13.492;2022-07-29T03:28:24;7.93;;;6.43;;
36211;SDS011;22247;48.586;13.492;2022-07-29T03:30:54;9.10;;;7.80;;
36211;SDS011;22247;48.586;13.492;2022-07-29T03:33:22;7.22;;;6.63;;
36211;SDS011;22247;48.586;13.492;2022-07-29T03:35:48;7.13;;;6.43;;
36211;SDS011;22247;48.586;13.492;2022-07-29T03:38:17;35.83;;;8.10;;
36211;SDS011;22247;48.586;13.492;2022-07-29T03:41:03;11.82;;;6.90;;
36211;SDS011;22247;48.586;13.492;2022-07-29T03:43:34;10.45;;;6.63;;
36211;SDS011;22247;48.586;13.492;2022-07-29T03:46:03;10.73;;;7.10;;
36211;SDS011;22247;48.586;13.492;2022-07-29T03:48:32;10.82;;;7.30;;
36211;SDS011;22247;48.586;13.492;2022-07-29T03:51:04;9.35;;;7.13;;
36211;SDS011;22247;48.586;13.492;2022-07-29T03:53:31;7.38;;;6.65;;
36211;SDS011;22247;48.586;13.492;2022-07-29T03:55:58;10.45;;;7.47;;
36211;SDS011;22247;48.586;13.492;2022-07-29T03:58:30;7.97;;;6.97;;
36211;SDS011;22247;48.586;13.492;2022-07-29T04:00:56;8.00;;;6.35;;
36211;SDS011;22247;48.586;13.492;2022-07-29T04:03:23;7.07;;;6.38;;
36211;SDS011;22247;48.586;13.492;2022-07-29T04:06:03;7.10;;;6.40;;
36211;SDS011;22247;48.586;13.492;2022-07-29T04:08:32;6.15;;;5.60;;
36211;SDS011;22247;48.586;13.492;2022-07-29T04:11:03;6.82;;;6.22;;
36211;SDS011;22247;48.586;13.492;2022-07-29T04:13:32;6.88;;;6.25;;
36211;SDS011;22247;48.586;13.492;2022-07-29T04:15:58;6.10;;;5.50;;
36211;SDS011;22247;48.586;13.492;2022-07-29T04:18:28;8.43;;;7.72;;
36211;SDS011;22247;48.586;13.492;2022-07-29T04:20:54;7.65;;;6.78;;
36211;SDS011;22247;48.586;13.492;2022-07-29T04:23:25;7.53;;;6.68;;
36211;SDS011;22247;48.586;13.492;2022-07-29T04:25:54;12.05;;;7.78;;
36211;SDS011;22247;48.586;13.492;2022-07-29T05:37:09;6.13;;;5.20;;
36211;SDS011;22247;48.586;13.492;2022-07-29T05:46:04;6.82;;;5.45;;
36211;SDS011;22247;48.586;13.492;2022-07-29T06:02:20;5.47;;;4.97;;
36211;SDS011;22247;48.586;13.492;2022-07-29T06:04:57;8.05;;;5.03;;
36211;SDS011;22247;48.586;13.492;2022-07-29T06:07:28;5.13;;;4.43;;
36211;SDS011;22247;48.586;13.492;2022-07-29T06:09:57;6.45;;;5.70;;
36211;SDS011;22247;48.586;13.492;2022-07-29T06:12:23;8.98;;;6.10;;
36211;SDS011;22247;48.586;13.492;2022-07-29T06:14:51;11.65;;;7.05;;
36211;SDS011;22247;48.586;13.492;2022-07-29T06:17:17;5.22;;;4.72;;
36211;SDS011;22247;48.586;13.492;2022-07-29T06:19:46;10.45;;;6.60;;
36211;SDS011;22247;48.586;13.492;2022-07-29T06:22:12;8.88;;;6.05;;
36211;SDS011;22247;48.586;13.492;2022-07-29T06:24:42;11.30;;;5.95;;
36211;SDS011;22247;48.586;13.492;2022-07-29T06:27:09;9.63;;;5.47;;
36211;SDS011;22247;48.586;13.492;2022-07-29T06:29:35;7.78;;;5.22;;
36211;SDS011;22247;48.586;13.492;2022-07-29T06:32:01;7.68;;;5.75;;
36211;SDS011;22247;48.586;13.492;2022-07-29T06:34:32;6.55;;;4.88;;
36211;SDS011;22247;48.586;13.492;2022-07-29T06:36:58;5.72;;;4.50;;
36211;SDS011;22247;48.586;13.492;2022-07-29T06:39:26;5.95;;;4.05;;
36211;SDS011;22247;48.586;13.492;2022-07-29T06:41:54;9.60;;;5.40;;
36211;SDS011;22247;48.586;13.492;2022-07-29T06:44:22;5.10;;;4.70;;
36211;SDS011;22247;48.586;13.492;2022-07-29T06:46:49;5.03;;;4.15;;
36211;SDS011;22247;48.586;13.492;2022-07-29T06:49:16;5.72;;;4.40;;
36211;SDS011;22247;48.586;13.492;2022-07-29T06:51:42;5.10;;;3.92;;
36211;SDS011;22247;48.586;13.492;2022-07-29T06:54:08;4.93;;;4.53;;
36211;SDS011;22247;48.586;13.492;2022-07-29T06:56:37;3.88;;;3.50;;
36211;SDS011;22247;48.586;13.492;2022-07-29T06:59:03;4.38;;;3.58;;
36211;SDS011;22247;48.586;13.492;2022-07-29T07:01:29;6.28;;;3.88;;
36211;SDS011;22247;48.586;13.492;2022-07-29T07:03:57;4.43;;;3.25;;
36211;SDS011;22247;48.586;13.492;2022-07-29T07:06:23;4.63;;;3.38;;
36211;SDS011;22247;48.586;13.492;2022-07-29T07:08:52;5.40;;;3.25;;
36211;SDS011;22247;48.586;13.492;2022-07-29T07:11:17;5.93;;;3.25;;
36211;SDS011;22247;48.586;13.492;2022-07-29T07:13:43;3.63;;;2.70;;
36211;SDS011;22247;48.586;13.492;2022-07-29T07:16:09;5.20;;;2.90;;
36211;SDS011;22247;48.586;13.492;2022-07-29T07:18:35;5.95;;;3.22;;
36211;SDS011;22247;48.586;13.492;2022-07-29T07:21:03;4.50;;;2.92;;
36211;SDS011;22247;48.586;13.492;2022-07-29T07:23:32;3.90;;;2.35;;
36211;SDS011;22247;48.586;13.492;2022-07-29T07:25:58;2.85;;;2.45;;
36211;SDS011;22247;48.586;13.492;2022-07-29T07:28:24;8.10;;;2.53;;
36211;SDS011;22247;48.586;13.492;2022-07-29T07:30:50;8.07;;;1.90;;
36211;SDS011;22247;48.586;13.492;2022-07-29T07:33:21;2.90;;;1.83;;
36211;SDS011;22247;48.586;13.492;2022-07-29T07:35:48;2.45;;;1.73;;
36211;SDS011;22247;48.586;13.492;2022-07-29T07:38:16;2.80;;;1.98;;
36211;SDS011;22247;48.586;13.492;2022-07-29T07:40:45;6.05;;;2.35;;
36211;SDS011;22247;48.586;13.492;2022-07-29T07:43:11;3.25;;;2.28;;
36211;SDS011;22247;48.586;13.492;2022-07-29T07:45:39;3.08;;;1.77;;
36211;SDS011;22247;48.586;13.492;2022-07-29T07:48:06;3.15;;;1.67;;
36211;SDS011;22247;48.586;13.492;2022-07-29T07:50:35;2.72;;;1.80;;
36211;SDS011;22247;48.586;13.492;2022-07-29T07:53:03;2.53;;;1.40;;
36211;SDS011;22247;48.586;13.492;2022-07-29T07:55:29;3.00;;;2.28;;
36211;SDS011;22247;48.586;13.492;2022-07-29T07:57:57;3.45;;;1.52;;
36211;SDS011;22247;48.586;13.492;2022-07-29T08:00:23;2.05;;;1.45;;
36211;SDS011;22247;48.586;13.492;2022-07-29T08:02:49;4.32;;;1.45;;
36211;SDS011;22247;48.586;13.492;2022-07-29T08:05:15;2.08;;;1.58;;
36211;SDS011;22247;48.586;13.492;2022-07-29T08:07:42;2.33;;;1.55;;
36211;SDS011;22247;48.586;13.492;2022-07-29T08:10:14;1.30;;;1.20;;
36211;SDS011;22247;48.586;13.492;2022-07-29T08:13:01;1.85;;;1.25;;
36211;SDS011;22247;48.586;13.492;2022-07-29T08:15:38;2.40;;;1.05;;
36211;SDS011;22247;48.586;13.492;2022-07-29T08:18:08;3.35;;;1.30;;
36211;SDS011;22247;48.586;13.492;2022-07-29T08:20:34;1.92;;;1.20;;
36211;SDS011;22247;48.586;13.492;2022-07-29T08:23:01;2.78;;;0.85;;
36211;SDS011;22247;48.586;13.492;2022-07-29T08:25:30;1.35;;;1.25;;
36211;SDS011;22247;48.586;13.492;2022-07-29T08:27:57;5.45;;;0.82;;
36211;SDS011;22247;48.586;13.492;2022-07-29T08:30:23;1.55;;;0.90;;
36211;SDS011;22247;48.586;13.492;2022-07-29T08:32:50;4.95;;;1.10;;
36211;SDS011;22247;48.586;13.492;2022-07-29T08:35:18;4.68;;;0.80;;
36211;SDS011;22247;48.586;13.492;2022-07-29T08:37:44;4.43;;;0.70;;
36211;SDS011;22247;48.586;13.492;2022-07-29T08:40:10;1.05;;;0.60;;
36211;SDS011;22247;48.586;13.492;2022-07-29T08:42:40;2.40;;;0.60;;
36211;SDS011;22247;48.586;13.492;2022-07-29T08:45:05;2.13;;;0.77;;
36211;SDS011;22247;48.586;13.492;2022-07-29T08:47:37;0.80;;;0.60;;
36211;SDS011;22247;48.586;13.492;2022-07-29T08:50:09;3.53;;;0.90;;
36211;SDS011;22247;48.586;13.492;2022-07-29T08:52:37;2.55;;;0.60;;
36211;SDS011;22247;48.586;13.492;2022-07-29T08:55:05;1.85;;;0.63;;
36211;SDS011;22247;48.586;13.492;2022-07-29T08:57:37;1.95;;;0.80;;
36211;SDS011;22247;48.586;13.492;2022-07-29T09:00:06;1.40;;;0.80;;
36211;SDS011;22247;48.586;13.492;2022-07-29T09:02:35;1.77;;;0.70;;
36211;SDS011;22247;48.586;13.492;2022-07-29T09:05:07;1.67;;;0.80;;
36211;SDS011;22247;48.586;13.492;2022-07-29T09:07:33;1.25;;;0.68;;
36211;SDS011;22247;48.586;13.492;2022-07-29T09:10:03;1.23;;;0.57;;
36211;SDS011;22247;48.586;13.492;2022-07-29T09:12:29;2.75;;;0.60;;
36211;SDS011;22247;48.586;13.492;2022-07-29T09:14:56;2.67;;;0.68;;
36211;SDS011;22247;48.586;13.492;2022-07-29T09:17:46;2.58;;;0.80;;
36211;SDS011;22247;48.586;13.492;2022-07-29T09:20:16;1.48;;;0.68;;
36211;SDS011;22247;48.586;13.492;2022-07-29T09:22:42;2.15;;;0.65;;
36211;SDS011;22247;48.586;13.492;2022-07-29T09:25:10;4.88;;;0.85;;
36211;SDS011;22247;48.586;13.492;2022-07-29T09:27:42;1.73;;;0.70;;
36211;SDS011;22247;48.586;13.492;2022-07-29T09:30:18;2.42;;;0.80;;
36211;SDS011;22247;48.586;13.492;2022-07-29T09:32:57;0.88;;;0.60;;
36211;SDS011;22247;48.586;13.492;2022-07-29T09:35:26;4.05;;;0.73;;
36211;SDS011;22247;48.586;13.492;2022-07-29T09:37:53;1.40;;;0.68;;
36211;SDS011;22247;48.586;13.492;2022-07-29T09:40:23;1.52;;;0.60;;
36211;SDS011;22247;48.586;13.492;2022-07-29T09:43:12;1.52;;;0.73;;
36211;SDS011;22247;48.586;13.492;2022-07-29T09:45:39;1.02;;;0.52;;
36211;SDS011;22247;48.586;13.492;2022-07-29T09:48:18;3.63;;;0.60;;
36211;SDS011;22247;48.586;13.492;2022-07-29T09:50:50;3.40;;;0.67;;
36211;SDS011;22247;48.586;13.492;2022-07-29T09:53:32;2.35;;;0.60;;
36211;SDS011;22247;48.586;13.492;2022-07-29T09:56:03;1.85;;;0.50;;
36211;SDS011;22247;48.586;13.492;2022-07-29T09:58:30;1.55;;;0.75;;
36211;SDS011;22247;48.586;13.492;2022-07-29T10:00:58;1.50;;;0.50;;
36211;SDS011;22247;48.586;13.492;2022-07-29T10:03:25;1.75;;;0.50;;
36211;SDS011;22247;48.586;13.492;2022-07-29T10:06:07;1.27;;;0.50;;
36211;SDS011;22247;48.586;13.492;2022-07-29T10:08:34;4.57;;;0.60;;
36211;SDS011;22247;48.586;13.492;2022-07-29T10:11:09;3.10;;;0.50;;
36211;SDS011;22247;48.586;13.492;2022-07-29T10:13:35;3.28;;;0.52;;
36211;SDS011;22247;48.586;13.492;2022-07-29T10:16:09;2.83;;;0.60;;
36211;SDS011;22247;48.586;13.492;2022-07-29T10:18:35;0.65;;;0.45;;
36211;SDS011;22247;48.586;13.492;2022-07-29T10:21:06;2.67;;;0.57;;
36211;SDS011;22247;48.586;13.492;2022-07-29T10:23:35;1.85;;;0.50;;
36211;SDS011;22247;48.586;13.492;2022-07-29T10:26:02;2.60;;;0.95;;
36211;SDS011;22247;48.586;13.492;2022-07-29T10:28:31;0.95;;;0.50;;
36211;SDS011;22247;48.586;13.492;2022-07-29T10:31:01;1.98;;;0.60;;
36211;SDS011;22247;48.586;13.492;2022-07-29T10:36:24;2.05;;;0.68;;
36211;SDS011;22247;48.586;13.492;2022-07-29T10:39:17;1.30;;;0.80;;
36211;SDS011;22247;48.586;13.492;2022-07-29T10:44:35;1.10;;;0.50;;
36211;SDS011;22247;48.586;13.492;2022-07-29T10:47:22;1.00;;;0.52;;
36211;SDS011;22247;48.586;13.492;2022-07-29T10:50:04;1.77;;;0.43;;
36211;SDS011;22247;48.586;13.492;2022-07-29T10:55:39;1.15;;;0.50;;
36211;SDS011;22247;48.586;13.492;2022-07-29T10:58:14;1.05;;;0.50;;
36211;SDS011;22247;48.586;13.492;2022-07-29T11:00:40;5.53;;;0.50;;
36211;SDS011;22247;48.586;13.492;2022-07-29T11:03:09;1.65;;;0.55;;
36211;SDS011;22247;48.586;13.492;2022-07-29T11:05:51;1.13;;;0.50;;
36211;SDS011;22247;48.586;13.492;2022-07-29T11:08:21;0.82;;;0.60;;
36211;SDS011;22247;48.586;13.492;2022-07-29T11:10:49;1.02;;;0.50;;
36211;SDS011;22247;48.586;13.492;2022-07-29T11:16:13;2.20;;;0.68;;
36211;SDS011;22247;48.586;13.492;2022-07-29T11:21:38;3.28;;;0.50;;
36211;SDS011;22247;48.586;13.492;2022-07-29T11:27:05;5.13;;;0.60;;
36211;SDS011;22247;48.586;13.492;2022-07-29T11:29:53;1.55;;;0.60;;
36211;SDS011;22247;48.586;13.492;2022-07-29T11:32:29;0.98;;;0.50;;
36211;SDS011;22247;48.586;13.492;2022-07-29T11:37:46;2.97;;;0.40;;
36211;SDS011;22247;48.586;13.492;2022-07-29T11:40:39;1.92;;;0.50;;
36211;SDS011;22247;48.586;13.492;2022-07-29T11:43:05;1.08;;;0.32;;
36211;SDS011;22247;48.586;13.492;2022-07-29T11:45:44;2.88;;;0.40;;
36211;SDS011;22247;48.586;13.492;2022-07-29T11:48:17;0.80;;;0.40;;
36211;SDS011;22247;48.586;13.492;2022-07-29T11:50:44;4.93;;;0.50;;
36211;SDS011;22247;48.586;13.492;2022-07-29T11:53:10;0.55;;;0.40;;
36211;SDS011;22247;48.586;13.492;2022-07-29T11:55:37;0.98;;;0.40;;
36211;SDS011;22247;48.586;13.492;2022-07-29T11:58:06;1.10;;;0.40;;
36211;SDS011;22247;48.586;13.492;2022-07-29T12:00:37;3.05;;;0.40;;
36211;SDS011;22247;48.586;13.492;2022-07-29T12:03:05;1.35;;;0.40;;
36211;SDS011;22247;48.586;13.492;2022-07-29T12:05:39;2.33;;;0.50;;
36211;SDS011;22247;48.586;13.492;2022-07-29T12:08:11;0.73;;;0.43;;
36211;SDS011;22247;48.586;13.492;2022-07-29T12:10:37;1.08;;;0.40;;
36211;SDS011;22247;48.586;13.492;2022-07-29T12:13:06;2.10;;;0.45;;
36211;SDS011;22247;48.586;13.492;2022-07-29T12:15:32;0.55;;;0.40;;
36211;SDS011;22247;48.586;13.492;2022-07-29T12:17:58;0.80;;;0.30;;
36211;SDS011;22247;48.586;13.492;2022-07-29T12:20:24;1.67;;;0.40;;
36211;SDS011;22247;48.586;13.492;2022-07-29T12:22:52;0.52;;;0.30;;
36211;SDS011;22247;48.586;13.492;2022-07-29T12:25:20;0.60;;;0.30;;
36211;SDS011;22247;48.586;13.492;2022-07-29T12:27:47;0.93;;;0.38;;
36211;SDS011;22247;48.586;13.492;2022-07-29T12:30:33;1.98;;;0.40;;
36211;SDS011;22247;48.586;13.492;2022-07-29T12:33:15;0.70;;;0.40;;
36211;SDS011;22247;48.586;13.492;2022-07-29T12:35:44;0.77;;;0.40;;
36211;SDS011;22247;48.586;13.492;2022-07-29T12:38:16;1.63;;;0.30;;
36211;SDS011;22247;48.586;13.492;2022-07-29T12:40:43;0.90;;;0.32;;
36211;SDS011;22247;48.586;13.492;2022-07-29T12:43:11;0.50;;;0.30;;
36211;SDS011;22247;48.586;13.492;2022-07-29T12:45:40;0.57;;;0.35;;
36211;SDS011;22247;48.586;13.492;2022-07-29T12:48:08;1.10;;;0.40;;
36211;SDS011;22247;48.586;13.492;2022-07-29T12:50:35;1.00;;;0.40;;
36211;SDS011;22247;48.586;13.492;2022-07-29T12:53:08;3.20;;;0.40;;
36211;SDS011;22247;48.586;13.492;2022-07-29T12:58:05;0.73;;;0.45;;
36211;SDS011;22247;48.586;13.492;2022-07-29T13:00:32;1.33;;;0.45;;
36211;SDS011;22247;48.586;13.492;2022-07-29T13:02:58;1.08;;;0.40;;
36211;SDS011;22247;48.586;13.492;2022-07-29T13:05:43;0.55;;;0.40;;
36211;SDS011;22247;48.586;13.492;2022-07-29T13:08:16;4.22;;;0.50;;
36211;SDS011;22247;48.586;13.492;2022-07-29T13:10:45;1.40;;;0.50;;
36211;SDS011;22247;48.586;13.492;2022-07-29T13:13:14;0.60;;;0.50;;
36211;SDS011;22247;48.586;13.492;2022-07-29T13:15:43;0.60;;;0.40;;
36211;SDS011;22247;48.586;13.492;2022-07-29T13:18:30;2.42;;;0.40;;
36211;SDS011;22247;48.586;13.492;2022-07-29T13:21:10;0.60;;;0.30;;
36211;SDS011;22247;48.586;13.492;2022-07-29T13:23:37;1.15;;;0.40;;
36211;SDS011;22247;48.586;13.492;2022-07-29T13:26:08;1.10;;;0.50;;
36211;SDS011;22247;48.586;13.492;2022-07-29T13:28:37;2.65;;;0.35;;
36211;SDS011;22247;48.586;13.492;2022-07-29T13:31:03;0.80;;;0.32;;
36211;SDS011;22247;48.586;13.492;2022-07-29T13:33:30;2.25;;;0.43;;
36211;SDS011;22247;48.586;13.492;2022-07-29T13:35:59;0.80;;;0.70;;
36211;SDS011;22247;48.586;13.492;2022-07-29T13:38:29;1.40;;;0.30;;
36211;SDS011;22247;48.586;13.492;2022-07-29T13:40:57;0.68;;;0.30;;
36211;SDS011;22247;48.586;13.492;2022-07-29T13:43:23;0.50;;;0.30;;
36211;SDS011;22247;48.586;13.492;2022-07-29T13:45:51;1.20;;;0.95;;
36211;SDS011;22247;48.586;13.492;2022-07-29T13:48:17;0.50;;;0.30;;
36211;SDS011;22247;48.586;13.492;2022-07-29T13:50:45;0.85;;;0.30;;
36211;SDS011;22247;48.586;13.492;2022-07-29T13:53:12;0.80;;;0.40;;
36211;SDS011;22247;48.586;13.492;2022-07-29T13:55:38;2.03;;;0.40;;
36211;SDS011;22247;48.586;13.492;2022-07-29T13:58:04;0.85;;;0.40;;
36211;SDS011;22247;48.586;13.492;2022-07-29T14:00:32;0.88;;;0.30;;
36211;SDS011;22247;48.586;13.492;2022-07-29T14:03:00;1.35;;;0.32;;
36211;SDS011;22247;48.586;13.492;2022-07-29T14:05:30;0.63;;;0.40;;
36211;SDS011;22247;48.586;13.492;2022-07-29T14:07:56;1.52;;;0.35;;
36211;SDS011;22247;48.586;13.492;2022-07-29T14:10:24;1.30;;;0.40;;
36211;SDS011;22247;48.586;13.492;2022-07-29T14:12:50;1.00;;;0.30;;
36211;SDS011;22247;48.586;13.492;2022-07-29T14:15:20;0.95;;;0.45;;
36211;SDS011;22247;48.586;13.492;2022-07-29T14:17:48;0.70;;;0.50;;
36211;SDS011;22247;48.586;13.492;2022-07-29T14:20:14;1.65;;;0.40;;
36211;SDS011;22247;48.586;13.492;2022-07-29T14:22:40;0.98;;;0.40;;
36211;SDS011;22247;48.586;13.492;2022-07-29T14:25:09;1.02;;;0.40;;
36211;SDS011;22247;48.586;13.492;2022-07-29T14:27:35;2.35;;;0.40;;
36211;SDS011;22247;48.586;13.492;2022-07-29T14:30:03;1.80;;;0.40;;
36211;SDS011;22247;48.586;13.492;2022-07-29T14:32:29;0.65;;;0.35;;
36211;SDS011;22247;48.586;13.492;2022-07-29T14:34:57;0.70;;;0.40;;
36211;SDS011;22247;48.586;13.492;2022-07-29T14:37:23;1.30;;;0.40;;
36211;SDS011;22247;48.586;13.492;2022-07-29T14:39:49;0.90;;;0.45;;
36211;SDS011;22247;48.586;13.492;2022-07-29T14:42:18;0.50;;;0.40;;
36211;SDS011;22247;48.586;13.492;2022-07-29T14:44:46;2.05;;;0.32;;
36211;SDS011;22247;48.586;13.492;2022-07-29T14:47:17;1.08;;;0.50;;
36211;SDS011;22247;48.586;13.492;2022-07-29T14:49:46;0.98;;;0.60;;
36211;SDS011;22247;48.586;13.492;2022-07-29T14:52:12;0.90;;;0.40;;
36211;SDS011;22247;48.586;13.492;2022-07-29T14:54:40;2.90;;;0.40;;
36211;SDS011;22247;48.586;13.492;2022-07-29T14:57:08;1.05;;;0.47;;
36211;SDS011;22247;48.586;13.492;2022-07-29T14:59:36;3.85;;;0.50;;
36211;SDS011;22247;48.586;13.492;2022-07-29T15:02:06;2.80;;;0.40;;
36211;SDS011;22247;48.586;13.492;2022-07-29T15:04:32;1.45;;;0.50;;
36211;SDS011;22247;48.586;13.492;2022-07-29T15:06:57;3.60;;;0.40;;
36211;SDS011;22247;48.586;13.492;2022-07-29T15:09:23;0.95;;;0.50;;
36211;SDS011;22247;48.586;13.492;2022-07-29T15:11:53;0.85;;;0.40;;
36211;SDS011;22247;48.586;13.492;2022-07-29T15:14:19;0.65;;;0.40;;
36211;SDS011;22247;48.586;13.492;2022-07-29T15:16:45;1.65;;;0.40;;
36211;SDS011;22247;48.586;13.492;2022-07-29T15:19:13;1.95;;;0.40;;
36211;SDS011;22247;48.586;13.492;2022-07-29T15:21:38;1.15;;;0.40;;
36211;SDS011;22247;48.586;13.492;2022-07-29T15:24:06;1.05;;;0.40;;
36211;SDS011;22247;48.586;13.492;2022-07-29T15:26:35;1.05;;;0.40;;
36211;SDS011;22247;48.586;13.492;2022-07-29T15:29:01;0.85;;;0.40;;
36211;SDS011;22247;48.586;13.492;2022-07-29T15:31:27;5.35;;;0.40;;
36211;SDS011;22247;48.586;13.492;2022-07-29T15:33:52;0.90;;;0.40;;
36211;SDS011;22247;48.586;13.492;2022-07-29T15:36:20;1.67;;;0.40;;
36211;SDS011;22247;48.586;13.492;2022-07-29T15:38:45;1.45;;;0.40;;
36211;SDS011;22247;48.586;13.492;2022-07-29T15:41:14;1.60;;;0.40;;
36211;SDS011;22247;48.586;13.492;2022-07-29T15:43:42;1.95;;;0.40;;
36211;SDS011;22247;48.586;13.492;2022-07-29T15:46:12;5.45;;;1.05;;
36211;SDS011;22247;48.586;13.492;2022-07-29T15:49:01;3.40;;;0.40;;
36211;SDS011;22247;48.586;13.492;2022-07-29T15:51:28;0.60;;;0.40;;
36211;SDS011;22247;48.586;13.492;2022-07-29T15:53:54;2.72;;;0.50;;
36211;SDS011;22247;48.586;13.492;2022-07-29T15:56:20;3.58;;;0.40;;
36211;SDS011;22247;48.586;13.492;2022-07-29T15:58:49;1.65;;;0.40;;
36211;SDS011;22247;48.586;13.492;2022-07-29T16:03:48;1.20;;;0.40;;
36211;SDS011;22247;48.586;13.492;2022-07-29T16:06:14;1.80;;;0.40;;
36211;SDS011;22247;48.586;13.492;2022-07-29T16:08:43;0.80;;;0.40;;
36211;SDS011;22247;48.586;13.492;2022-07-29T16:11:12;2.03;;;0.50;;
36211;SDS011;22247;48.586;13.492;2022-07-29T16:13:38;0.82;;;0.40;;
36211;SDS011;22247;48.586;13.492;2022-07-29T16:16:04;0.70;;;0.50;;
36211;SDS011;22247;48.586;13.492;2022-07-29T16:18:32;1.17;;;0.47;;
36211;SDS011;22247;48.586;13.492;2022-07-29T16:21:01;1.75;;;0.50;;
36211;SDS011;22247;48.586;13.492;2022-07-29T16:23:26;1.83;;;0.60;;
36211;SDS011;22247;48.586;13.492;2022-07-29T16:25:54;3.10;;;0.70;;
36211;SDS011;22247;48.586;13.492;2022-07-29T16:30:54;3.80;;;0.60;;
36211;SDS011;22247;48.586;13.492;2022-07-29T16:33:20;2.05;;;0.60;;
36211;SDS011;22247;48.586;13.492;2022-07-29T16:35:48;0.85;;;0.60;;
36211;SDS011;22247;48.586;13.492;2022-07-29T16:38:14;0.80;;;0.50;;
36211;SDS011;22247;48.586;13.492;2022-07-29T16:40:40;1.80;;;0.60;;
36211;SDS011;22247;48.586;13.492;2022-07-29T16:43:08;2.38;;;0.50;;
36211;SDS011;22247;48.586;13.492;2022-07-29T16:45:34;3.05;;;0.50;;
36211;SDS011;22247;48.586;13.492;2022-07-29T16:48:01;0.90;;;0.50;;
36211;SDS011;22247;48.586;13.492;2022-07-29T16:50:27;3.08;;;1.25;;
36211;SDS011;22247;48.586;13.492;2022-07-29T16:52:54;1.45;;;0.60;;
36211;SDS011;22247;48.586;13.492;2022-07-29T16:55:22;2.83;;;0.60;;
36211;SDS011;22247;48.586;13.492;2022-07-29T16:57:48;1.30;;;0.60;;